createdAt,value
2022-08-22T00:04:00.503Z,16.8
2022-08-22T00:15:26.093Z,16.7
2022-08-22T00:21:22.979Z,16.7
2022-08-22T00:27:09.537Z,16.6
2022-08-22T00:32:48.877Z,16.6
2022-08-22T00:38:32.561Z,16.6
2022-08-22T00:44:15.312Z,16.6
2022-08-22T00:49:45.868Z,16.5
2022-08-22T00:55:11.971Z,16.5
2022-08-22T01:00:53.093Z,16.4
2022-08-22T01:06:34.691Z,16.4
2022-08-22T01:12:23.073Z,16.4
2022-08-22T01:17:59.982Z,16.4
2022-08-22T01:23:37.774Z,16.4
2022-08-22T01:29:15.309Z,16.3
2022-08-22T01:34:59.340Z,16.3
2022-08-22T01:40:37.610Z,16.3
2022-08-22T01:47:15.263Z,16.3
2022-08-22T01:53:00.795Z,16.3
2022-08-22T02:03:59.809Z,16.2
2022-08-22T02:09:32.584Z,16.1
2022-08-22T02:14:56.372Z,16.1
2022-08-22T02:20:20.400Z,16.1
2022-08-22T02:26:02.991Z,16.1
2022-08-22T02:31:54.709Z,16
2022-08-22T02:37:35.871Z,16
2022-08-22T02:43:17.756Z,15.9
2022-08-22T02:48:53.881Z,15.9
2022-08-22T02:54:19.228Z,15.8
2022-08-22T03:00:25.120Z,15.8
2022-08-22T03:06:00.469Z,15.7
2022-08-22T03:11:26.351Z,15.6
2022-08-22T03:17:05.942Z,15.6
2022-08-22T03:22:27.735Z,15.6
2022-08-22T03:28:27.939Z,15.5
2022-08-22T03:34:20.453Z,15.4
2022-08-22T03:39:55.279Z,15.4
2022-08-22T03:45:34.714Z,15.3
2022-08-22T03:50:56.447Z,15.3
2022-08-22T03:56:32.182Z,15.3
2022-08-22T04:02:59.609Z,15.3
2022-08-22T04:09:04.674Z,15.3
2022-08-22T04:14:45.852Z,15.3
2022-08-22T04:20:24.739Z,15.3
2022-08-22T04:26:10.745Z,15.4
2022-08-22T04:31:34.831Z,15.4
2022-08-22T04:37:01.474Z,15.6
2022-08-22T04:43:08.819Z,15.8
2022-08-22T04:48:57.683Z,16.1
2022-08-22T04:54:47.394Z,16.5
2022-08-22T05:00:29.240Z,16.9
2022-08-22T05:06:24.511Z,17.5
2022-08-22T05:12:13.687Z,18.3
2022-08-22T05:17:41.736Z,18.9
2022-08-22T05:23:34.248Z,19.6
2022-08-22T05:29:26.146Z,20.2
2022-08-22T05:35:07.961Z,20.9
2022-08-22T05:40:54.089Z,21.7
2022-08-22T05:46:29.396Z,22.6
2022-08-22T05:52:08.812Z,23.6
2022-08-22T05:58:02.320Z,25.3
2022-08-22T06:03:39.942Z,26.5
2022-08-22T06:09:17.688Z,27
2022-08-22T06:15:11.726Z,28
2022-08-22T06:21:06.693Z,30.6
2022-08-22T06:26:58.495Z,23.4
2022-08-22T06:33:15.313Z,39
2022-08-22T06:38:39.295Z,37.6
2022-08-22T06:44:18.541Z,37.3
2022-08-22T06:50:01.657Z,38.7
2022-08-22T06:55:45.604Z,40.9
2022-08-22T07:01:43.843Z,41.1
2022-08-22T07:07:24.583Z,41
2022-08-22T07:13:09.982Z,41.1
2022-08-22T07:18:51.458Z,41
2022-08-22T07:24:31.424Z,41.1
2022-08-22T07:30:29.567Z,41.1
2022-08-22T07:36:19.089Z,41.4
2022-08-22T07:42:02.641Z,41.4
2022-08-22T07:47:45.159Z,41.6
2022-08-22T07:54:13.523Z,42.9
2022-08-22T08:00:07.701Z,43.3
2022-08-22T08:05:50.569Z,44.8
2022-08-22T08:11:28.330Z,45.9
2022-08-22T08:17:15.680Z,47.1
2022-08-22T08:22:53.385Z,47.8
2022-08-22T08:28:47.966Z,48.9
2022-08-22T08:34:53.855Z,49.6
2022-08-22T08:41:05.712Z,50.6
2022-08-22T08:46:55.359Z,49.9
2022-08-22T08:52:40.912Z,50.6
2022-08-22T09:43:27.370Z,54.1
2022-08-22T09:49:23.155Z,54.6
2022-08-22T09:55:52.225Z,54.8
2022-08-22T10:01:49.966Z,54.4
2022-08-22T10:08:11.288Z,54.6
2022-08-22T10:14:14.170Z,55.6
2022-08-22T10:20:07.228Z,56.2
2022-08-22T10:25:40.502Z,55.8
2022-08-22T10:31:27.151Z,56.9
2022-08-22T10:37:29.157Z,56.5
2022-08-22T10:43:45.273Z,56.3
2022-08-22T10:49:46.256Z,57.7
2022-08-22T10:56:05.048Z,58.3
2022-08-22T11:02:36.693Z,58.8
2022-08-22T11:08:43.984Z,59.4
2022-08-22T11:14:38.125Z,59.6
2022-08-22T11:21:04.407Z,60.3
2022-08-22T11:27:37.886Z,60.8
2022-08-22T11:34:02.599Z,60.6
2022-08-22T11:40:29.229Z,60.3
2022-08-22T11:46:36.469Z,61.4
2022-08-22T11:52:28.820Z,60.8
2022-08-22T11:58:30.573Z,60.1
2022-08-22T12:04:19.956Z,59.5
2022-08-22T12:10:31.445Z,59
2022-08-22T12:16:50.914Z,58.6
2022-08-22T12:23:59.889Z,59.1
2022-08-22T12:30:34.416Z,58.2
2022-08-22T12:36:34.608Z,57.9
2022-08-22T12:43:02.723Z,59.3
2022-08-22T12:48:54.816Z,59.8
2022-08-22T12:54:50.803Z,60.2
2022-08-22T13:01:01.857Z,60.8
2022-08-22T13:07:14.171Z,60.8
2022-08-22T13:13:01.120Z,60.7
2022-08-22T13:19:52.580Z,59.4
2022-08-22T13:26:07.998Z,58.6
2022-08-22T13:38:22.084Z,57
2022-08-22T13:44:17.927Z,55.3
2022-08-22T13:50:17.874Z,52.7
2022-08-22T13:57:06.846Z,49.3
2022-08-22T14:03:38.230Z,45.8
2022-08-22T14:10:14.734Z,42.9
2022-08-22T14:16:26.906Z,40.5
2022-08-22T14:23:17.249Z,37.9
2022-08-22T14:29:05.942Z,35.4
2022-08-22T14:35:01.860Z,33.1
2022-08-22T14:41:13.273Z,31.2
2022-08-22T14:48:14.439Z,29.5
2022-08-22T14:54:22.833Z,28
2022-08-22T15:00:11.572Z,26.9
2022-08-22T15:06:02.178Z,25.9
2022-08-22T15:12:12.844Z,25.2
2022-08-22T15:18:13.747Z,24.7
2022-08-22T15:24:24.632Z,24.3
2022-08-22T15:30:37.807Z,23.9
2022-08-22T15:36:26.576Z,23.6
2022-08-22T15:42:32.175Z,23.3
2022-08-22T15:48:52.393Z,23.1
2022-08-22T15:55:07.601Z,22.8
2022-08-22T16:01:36.515Z,22.6
2022-08-22T16:07:26.137Z,22.3
2022-08-22T16:13:06.855Z,22.1
2022-08-22T16:18:48.884Z,21.9
2022-08-22T16:24:36.810Z,21.6
2022-08-22T16:30:52.452Z,21.4
2022-08-22T16:36:32.025Z,21.3
2022-08-22T16:47:52.687Z,20.9
2022-08-22T16:53:35.806Z,20.8
2022-08-22T17:00:01.770Z,20.6
2022-08-22T17:05:46.803Z,20.5
2022-08-22T17:11:26.687Z,20.4
2022-08-22T17:17:10.422Z,20.3
2022-08-22T17:23:07.162Z,20.1
2022-08-22T17:28:50.707Z,19.9
2022-08-22T17:34:30.374Z,19.8
2022-08-22T17:40:12.574Z,19.7
2022-08-22T17:46:06.494Z,19.6
2022-08-22T17:51:51.832Z,19.4
2022-08-22T17:57:43.485Z,19.3
2022-08-22T18:03:51.263Z,19.2
2022-08-22T18:10:08.628Z,19.1
2022-08-22T18:21:29.799Z,18.8
2022-08-22T18:27:51.645Z,18.8
2022-08-22T18:39:14.895Z,18.6
2022-08-22T18:45:08.017Z,18.4
2022-08-22T18:51:40.558Z,18.3
2022-08-22T18:57:22.586Z,18.2
2022-08-22T19:03:38.825Z,18.1
2022-08-22T19:09:00.971Z,18
2022-08-22T19:14:12.100Z,17.9
2022-08-22T19:20:09.655Z,17.9
2022-08-22T19:25:48.778Z,17.8
2022-08-22T19:31:32.971Z,17.7
2022-08-22T19:37:31.146Z,17.7
2022-08-22T19:43:09.051Z,17.6
2022-08-22T19:48:33.655Z,17.6
2022-08-22T19:54:16.599Z,17.5
2022-08-22T20:00:07.448Z,17.4
2022-08-22T20:05:45.827Z,17.4
2022-08-22T20:17:40.254Z,17.3
2022-08-22T20:24:13.322Z,17.3
2022-08-22T20:30:22.708Z,17.2
2022-08-22T20:35:33.564Z,17.1
2022-08-22T20:43:10.488Z,17.1
2022-08-22T20:48:52.529Z,17.1
2022-08-22T21:00:08.108Z,16.9
2022-08-22T21:05:47.808Z,16.9
2022-08-22T21:11:31.055Z,16.8
2022-08-22T21:17:09.848Z,16.8
2022-08-22T21:22:35.566Z,16.7
2022-08-22T21:28:01.530Z,16.7
2022-08-22T21:33:40.498Z,16.6
2022-08-22T21:39:01.847Z,16.6
2022-08-22T21:44:31.962Z,16.5
2022-08-22T21:50:23.416Z,16.4
2022-08-22T21:56:19.777Z,16.4
2022-08-22T22:02:44.003Z,16.4
2022-08-22T22:08:29.207Z,16.3
2022-08-22T22:14:09.295Z,16.3
2022-08-22T22:19:45.971Z,16.3
2022-08-22T22:25:56.022Z,16.2
2022-08-22T22:31:34.252Z,16.2
2022-08-22T22:37:15.179Z,16.1
2022-08-22T22:43:00.953Z,16.1
2022-08-22T22:48:43.699Z,16.1
2022-08-22T22:53:59.853Z,16
2022-08-22T23:00:18.829Z,15.9
2022-08-22T23:05:57.263Z,15.8
2022-08-22T23:11:49.731Z,15.8
2022-08-22T23:17:31.844Z,15.8
2022-08-22T23:23:17.393Z,15.7
2022-08-22T23:28:54.772Z,15.6
2022-08-22T23:34:30.926Z,15.6
2022-08-22T23:40:14.030Z,15.5
2022-08-22T23:45:57.393Z,15.5
2022-08-22T23:51:22.251Z,15.4
2022-08-22T23:56:36.421Z,15.4
